sensor_id;sensor_type;location;lat;lon;timestamp;P1;durP1;ratioP1;P2;durP2;ratioP2
20229;SDS011;12195;55.790;37.572;2023-03-23T00:01:20;2.92;;;1.90;;
20229;SDS011;12195;55.790;37.572;2023-03-23T00:03:54;2.58;;;1.92;;
20229;SDS011;12195;55.790;37.572;2023-03-23T00:06:26;4.15;;;2.20;;
20229;SDS011;12195;55.790;37.572;2023-03-23T00:08:59;3.10;;;1.67;;
20229;SDS011;12195;55.790;37.572;2023-03-23T00:11:32;9.75;;;2.50;;
20229;SDS011;12195;55.790;37.572;2023-03-23T00:14:03;3.10;;;1.80;;
20229;SDS011;12195;55.790;37.572;2023-03-23T00:16:34;6.37;;;2.12;;
20229;SDS011;12195;55.790;37.572;2023-03-23T00:19:07;3.50;;;2.02;;
20229;SDS011;12195;55.790;37.572;2023-03-23T00:21:42;4.40;;;2.10;;
20229;SDS011;12195;55.790;37.572;2023-03-23T00:24:14;3.52;;;2.08;;
20229;SDS011;12195;55.790;37.572;2023-03-23T00:26:47;2.50;;;1.97;;
20229;SDS011;12195;55.790;37.572;2023-03-23T00:29:21;2.65;;;2.02;;
20229;SDS011;12195;55.790;37.572;2023-03-23T00:31:52;3.25;;;2.10;;
20229;SDS011;12195;55.790;37.572;2023-03-23T00:34:25;3.95;;;2.20;;
20229;SDS011;12195;55.790;37.572;2023-03-23T00:36:59;2.98;;;1.85;;
20229;SDS011;12195;55.790;37.572;2023-03-23T00:39:31;3.80;;;2.10;;
20229;SDS011;12195;55.790;37.572;2023-03-23T00:42:02;5.15;;;1.87;;
20229;SDS011;12195;55.790;37.572;2023-03-23T00:44:33;3.87;;;1.70;;
20229;SDS011;12195;55.790;37.572;2023-03-23T00:47:04;4.95;;;1.95;;
20229;SDS011;12195;55.790;37.572;2023-03-23T00:49:39;3.47;;;1.95;;
20229;SDS011;12195;55.790;37.572;2023-03-23T00:52:10;3.12;;;1.82;;
20229;SDS011;12195;55.790;37.572;2023-03-23T00:54:41;2.72;;;1.92;;
20229;SDS011;12195;55.790;37.572;2023-03-23T00:57:12;3.25;;;1.98;;
20229;SDS011;12195;55.790;37.572;2023-03-23T00:59:43;2.98;;;2.12;;
20229;SDS011;12195;55.790;37.572;2023-03-23T01:02:16;5.22;;;1.85;;
20229;SDS011;12195;55.790;37.572;2023-03-23T01:04:48;2.87;;;1.90;;
20229;SDS011;12195;55.790;37.572;2023-03-23T01:07:21;2.80;;;1.95;;
20229;SDS011;12195;55.790;37.572;2023-03-23T01:09:52;2.40;;;1.90;;
20229;SDS011;12195;55.790;37.572;2023-03-23T01:12:23;3.98;;;1.80;;
20229;SDS011;12195;55.790;37.572;2023-03-23T01:14:55;2.30;;;1.98;;
20229;SDS011;12195;55.790;37.572;2023-03-23T01:17:26;2.40;;;1.90;;
20229;SDS011;12195;55.790;37.572;2023-03-23T01:19:57;4.78;;;2.02;;
20229;SDS011;12195;55.790;37.572;2023-03-23T01:22:29;5.30;;;1.90;;
20229;SDS011;12195;55.790;37.572;2023-03-23T01:25:01;2.33;;;2.00;;
20229;SDS011;12195;55.790;37.572;2023-03-23T01:27:32;3.87;;;2.10;;
20229;SDS011;12195;55.790;37.572;2023-03-23T01:30:04;2.72;;;1.90;;
20229;SDS011;12195;55.790;37.572;2023-03-23T01:32:37;2.30;;;2.00;;
20229;SDS011;12195;55.790;37.572;2023-03-23T01:35:09;2.77;;;2.10;;
20229;SDS011;12195;55.790;37.572;2023-03-23T01:37:42;7.58;;;2.50;;
20229;SDS011;12195;55.790;37.572;2023-03-23T01:40:13;3.00;;;2.20;;
20229;SDS011;12195;55.790;37.572;2023-03-23T01:42:45;6.28;;;2.50;;
20229;SDS011;12195;55.790;37.572;2023-03-23T01:45:25;3.75;;;2.25;;
20229;SDS011;12195;55.790;37.572;2023-03-23T01:53:04;5.70;;;2.27;;
20229;SDS011;12195;55.790;37.572;2023-03-23T01:58:10;6.17;;;2.10;;
20229;SDS011;12195;55.790;37.572;2023-03-23T02:00:41;6.17;;;2.05;;
20229;SDS011;12195;55.790;37.572;2023-03-23T02:03:13;3.25;;;1.80;;
20229;SDS011;12195;55.790;37.572;2023-03-23T02:05:46;3.62;;;1.90;;
20229;SDS011;12195;55.790;37.572;2023-03-23T02:08:28;3.22;;;2.20;;
20229;SDS011;12195;55.790;37.572;2023-03-23T02:11:01;2.80;;;1.60;;
20229;SDS011;12195;55.790;37.572;2023-03-23T02:13:45;7.22;;;2.50;;
20229;SDS011;12195;55.790;37.572;2023-03-23T02:16:21;4.55;;;1.62;;
20229;SDS011;12195;55.790;37.572;2023-03-23T02:18:58;3.77;;;2.10;;
20229;SDS011;12195;55.790;37.572;2023-03-23T02:22:02;5.90;;;2.10;;
20229;SDS011;12195;55.790;37.572;2023-03-23T02:27:14;2.50;;;1.85;;
20229;SDS011;12195;55.790;37.572;2023-03-23T02:35:43;2.83;;;1.82;;
20229;SDS011;12195;55.790;37.572;2023-03-23T02:38:23;4.05;;;2.10;;
20229;SDS011;12195;55.790;37.572;2023-03-23T02:40:55;5.05;;;2.17;;
20229;SDS011;12195;55.790;37.572;2023-03-23T02:43:31;2.80;;;1.80;;
20229;SDS011;12195;55.790;37.572;2023-03-23T02:46:04;9.00;;;2.17;;
20229;SDS011;12195;55.790;37.572;2023-03-23T02:48:37;4.15;;;1.98;;
20229;SDS011;12195;55.790;37.572;2023-03-23T02:51:11;4.63;;;2.30;;
20229;SDS011;12195;55.790;37.572;2023-03-23T02:53:43;6.12;;;2.50;;
20229;SDS011;12195;55.790;37.572;2023-03-23T02:56:17;2.75;;;1.95;;
20229;SDS011;12195;55.790;37.572;2023-03-23T02:58:50;4.47;;;2.55;;
20229;SDS011;12195;55.790;37.572;2023-03-23T03:04:01;6.67;;;2.20;;
20229;SDS011;12195;55.790;37.572;2023-03-23T03:11:52;6.20;;;2.62;;
20229;SDS011;12195;55.790;37.572;2023-03-23T03:14:27;4.53;;;2.30;;
20229;SDS011;12195;55.790;37.572;2023-03-23T03:17:17;7.75;;;2.12;;
20229;SDS011;12195;55.790;37.572;2023-03-23T03:19:45;4.92;;;2.65;;
20229;SDS011;12195;55.790;37.572;2023-03-23T03:22:20;8.45;;;3.35;;
20229;SDS011;12195;55.790;37.572;2023-03-23T03:24:55;2.67;;;1.80;;
20229;SDS011;12195;55.790;37.572;2023-03-23T03:27:28;2.73;;;2.13;;
20229;SDS011;12195;55.790;37.572;2023-03-23T03:30:05;8.48;;;2.30;;
20229;SDS011;12195;55.790;37.572;2023-03-23T03:32:44;2.85;;;1.87;;
20229;SDS011;12195;55.790;37.572;2023-03-23T03:35:17;2.77;;;2.20;;
20229;SDS011;12195;55.790;37.572;2023-03-23T03:37:51;4.17;;;2.10;;
20229;SDS011;12195;55.790;37.572;2023-03-23T03:40:23;6.70;;;2.30;;
20229;SDS011;12195;55.790;37.572;2023-03-23T03:42:54;7.53;;;2.70;;
20229;SDS011;12195;55.790;37.572;2023-03-23T03:45:25;6.37;;;2.55;;
20229;SDS011;12195;55.790;37.572;2023-03-23T03:47:57;5.03;;;2.85;;
20229;SDS011;12195;55.790;37.572;2023-03-23T03:50:29;6.40;;;2.20;;
20229;SDS011;12195;55.790;37.572;2023-03-23T03:53:01;5.45;;;2.77;;
20229;SDS011;12195;55.790;37.572;2023-03-23T03:55:32;4.12;;;2.27;;
20229;SDS011;12195;55.790;37.572;2023-03-23T03:58:05;3.47;;;2.58;;
20229;SDS011;12195;55.790;37.572;2023-03-23T04:00:41;4.15;;;2.42;;
20229;SDS011;12195;55.790;37.572;2023-03-23T04:03:15;7.08;;;2.72;;
20229;SDS011;12195;55.790;37.572;2023-03-23T04:05:48;5.23;;;2.20;;
20229;SDS011;12195;55.790;37.572;2023-03-23T04:08:21;4.95;;;2.52;;
20229;SDS011;12195;55.790;37.572;2023-03-23T04:10:52;8.30;;;2.87;;
20229;SDS011;12195;55.790;37.572;2023-03-23T04:13:25;3.75;;;2.55;;
20229;SDS011;12195;55.790;37.572;2023-03-23T04:16:04;4.22;;;2.62;;
20229;SDS011;12195;55.790;37.572;2023-03-23T04:18:36;3.17;;;2.40;;
20229;SDS011;12195;55.790;37.572;2023-03-23T04:21:07;9.25;;;2.90;;
20229;SDS011;12195;55.790;37.572;2023-03-23T04:23:39;5.33;;;3.08;;
20229;SDS011;12195;55.790;37.572;2023-03-23T04:26:10;7.10;;;3.30;;
20229;SDS011;12195;55.790;37.572;2023-03-23T04:28:46;6.22;;;3.05;;
20229;SDS011;12195;55.790;37.572;2023-03-23T04:31:38;7.28;;;3.25;;
20229;SDS011;12195;55.790;37.572;2023-03-23T04:34:13;5.37;;;3.52;;
20229;SDS011;12195;55.790;37.572;2023-03-23T04:36:46;6.42;;;3.10;;
20229;SDS011;12195;55.790;37.572;2023-03-23T04:39:19;6.15;;;3.50;;
20229;SDS011;12195;55.790;37.572;2023-03-23T04:41:50;6.40;;;3.47;;
20229;SDS011;12195;55.790;37.572;2023-03-23T04:44:25;4.60;;;3.30;;
20229;SDS011;12195;55.790;37.572;2023-03-23T04:47:00;6.85;;;3.70;;
20229;SDS011;12195;55.790;37.572;2023-03-23T04:52:05;4.35;;;2.77;;
20229;SDS011;12195;55.790;37.572;2023-03-23T04:54:44;5.20;;;3.52;;
20229;SDS011;12195;55.790;37.572;2023-03-23T04:57:15;9.93;;;4.25;;
20229;SDS011;12195;55.790;37.572;2023-03-23T04:59:47;8.53;;;3.67;;
20229;SDS011;12195;55.790;37.572;2023-03-23T05:02:20;6.40;;;3.77;;
20229;SDS011;12195;55.790;37.572;2023-03-23T05:04:51;8.63;;;4.15;;
20229;SDS011;12195;55.790;37.572;2023-03-23T05:07:24;7.20;;;3.77;;
20229;SDS011;12195;55.790;37.572;2023-03-23T05:09:55;6.55;;;3.83;;
20229;SDS011;12195;55.790;37.572;2023-03-23T05:12:29;7.17;;;4.17;;
20229;SDS011;12195;55.790;37.572;2023-03-23T05:15:02;9.75;;;4.30;;
20229;SDS011;12195;55.790;37.572;2023-03-23T05:17:34;13.65;;;4.47;;
20229;SDS011;12195;55.790;37.572;2023-03-23T05:20:06;8.23;;;4.60;;
20229;SDS011;12195;55.790;37.572;2023-03-23T05:22:44;9.00;;;5.00;;
20229;SDS011;12195;55.790;37.572;2023-03-23T05:25:19;8.65;;;4.12;;
20229;SDS011;12195;55.790;37.572;2023-03-23T05:27:53;9.95;;;4.33;;
20229;SDS011;12195;55.790;37.572;2023-03-23T05:30:26;8.95;;;4.35;;
20229;SDS011;12195;55.790;37.572;2023-03-23T05:32:57;15.35;;;4.53;;
20229;SDS011;12195;55.790;37.572;2023-03-23T05:35:30;10.13;;;4.35;;
20229;SDS011;12195;55.790;37.572;2023-03-23T05:38:01;11.08;;;4.00;;
20229;SDS011;12195;55.790;37.572;2023-03-23T05:40:34;12.45;;;4.55;;
20229;SDS011;12195;55.790;37.572;2023-03-23T05:43:07;15.20;;;4.10;;
20229;SDS011;12195;55.790;37.572;2023-03-23T05:45:43;11.25;;;4.95;;
20229;SDS011;12195;55.790;37.572;2023-03-23T05:48:14;9.35;;;4.25;;
20229;SDS011;12195;55.790;37.572;2023-03-23T05:50:46;14.38;;;5.92;;
20229;SDS011;12195;55.790;37.572;2023-03-23T05:53:17;13.22;;;4.50;;
20229;SDS011;12195;55.790;37.572;2023-03-23T05:55:49;14.50;;;4.40;;
20229;SDS011;12195;55.790;37.572;2023-03-23T05:58:22;17.30;;;4.60;;
20229;SDS011;12195;55.790;37.572;2023-03-23T06:00:53;6.17;;;4.03;;
20229;SDS011;12195;55.790;37.572;2023-03-23T06:03:26;8.03;;;4.58;;
20229;SDS011;12195;55.790;37.572;2023-03-23T06:05:58;8.23;;;4.20;;
20229;SDS011;12195;55.790;37.572;2023-03-23T06:08:34;7.78;;;4.22;;
20229;SDS011;12195;55.790;37.572;2023-03-23T06:11:06;7.97;;;4.60;;
20229;SDS011;12195;55.790;37.572;2023-03-23T06:13:39;8.43;;;4.53;;
20229;SDS011;12195;55.790;37.572;2023-03-23T06:16:11;13.38;;;5.10;;
20229;SDS011;12195;55.790;37.572;2023-03-23T06:18:53;11.05;;;4.65;;
20229;SDS011;12195;55.790;37.572;2023-03-23T06:21:27;13.32;;;4.70;;
20229;SDS011;12195;55.790;37.572;2023-03-23T06:23:59;15.70;;;4.62;;
20229;SDS011;12195;55.790;37.572;2023-03-23T06:26:35;17.55;;;5.22;;
20229;SDS011;12195;55.790;37.572;2023-03-23T06:29:09;13.50;;;5.10;;
20229;SDS011;12195;55.790;37.572;2023-03-23T06:31:45;13.65;;;4.78;;
20229;SDS011;12195;55.790;37.572;2023-03-23T06:34:20;9.83;;;4.70;;
20229;SDS011;12195;55.790;37.572;2023-03-23T06:37:02;26.17;;;6.22;;
20229;SDS011;12195;55.790;37.572;2023-03-23T06:39:35;10.75;;;5.40;;
20229;SDS011;12195;55.790;37.572;2023-03-23T06:42:14;12.33;;;5.45;;
20229;SDS011;12195;55.790;37.572;2023-03-23T06:44:47;9.85;;;5.25;;
20229;SDS011;12195;55.790;37.572;2023-03-23T06:47:18;8.63;;;5.00;;
20229;SDS011;12195;55.790;37.572;2023-03-23T06:49:50;16.07;;;5.42;;
20229;SDS011;12195;55.790;37.572;2023-03-23T06:52:22;9.33;;;4.67;;
20229;SDS011;12195;55.790;37.572;2023-03-23T06:54:55;11.48;;;4.72;;
20229;SDS011;12195;55.790;37.572;2023-03-23T06:57:26;15.93;;;5.58;;
20229;SDS011;12195;55.790;37.572;2023-03-23T06:59:57;17.98;;;5.62;;
20229;SDS011;12195;55.790;37.572;2023-03-23T07:02:30;9.93;;;5.33;;
20229;SDS011;12195;55.790;37.572;2023-03-23T07:05:02;21.57;;;6.47;;
20229;SDS011;12195;55.790;37.572;2023-03-23T07:07:34;12.98;;;5.05;;
20229;SDS011;12195;55.790;37.572;2023-03-23T07:10:14;8.85;;;5.12;;
20229;SDS011;12195;55.790;37.572;2023-03-23T07:12:46;11.30;;;4.95;;
20229;SDS011;12195;55.790;37.572;2023-03-23T07:15:19;13.22;;;5.03;;
20229;SDS011;12195;55.790;37.572;2023-03-23T07:17:52;19.57;;;6.22;;
20229;SDS011;12195;55.790;37.572;2023-03-23T07:20:26;13.85;;;5.15;;
20229;SDS011;12195;55.790;37.572;2023-03-23T07:22:57;12.93;;;5.28;;
20229;SDS011;12195;55.790;37.572;2023-03-23T07:25:43;12.90;;;5.22;;
20229;SDS011;12195;55.790;37.572;2023-03-23T07:28:20;17.50;;;5.45;;
20229;SDS011;12195;55.790;37.572;2023-03-23T07:30:51;9.78;;;5.03;;
20229;SDS011;12195;55.790;37.572;2023-03-23T07:33:22;18.40;;;5.15;;
20229;SDS011;12195;55.790;37.572;2023-03-23T07:35:54;11.95;;;5.10;;
20229;SDS011;12195;55.790;37.572;2023-03-23T07:38:28;20.68;;;5.60;;
20229;SDS011;12195;55.790;37.572;2023-03-23T07:40:59;19.05;;;5.17;;
20229;SDS011;12195;55.790;37.572;2023-03-23T07:43:32;21.68;;;5.90;;
20229;SDS011;12195;55.790;37.572;2023-03-23T07:46:13;6.97;;;5.10;;
20229;SDS011;12195;55.790;37.572;2023-03-23T07:48:46;14.73;;;4.95;;
20229;SDS011;12195;55.790;37.572;2023-03-23T07:51:18;12.40;;;5.05;;
20229;SDS011;12195;55.790;37.572;2023-03-23T07:53:51;7.58;;;4.35;;
20229;SDS011;12195;55.790;37.572;2023-03-23T07:56:23;8.08;;;3.62;;
20229;SDS011;12195;55.790;37.572;2023-03-23T07:58:57;23.77;;;4.83;;
20229;SDS011;12195;55.790;37.572;2023-03-23T08:01:28;8.48;;;3.70;;
20229;SDS011;12195;55.790;37.572;2023-03-23T08:04:17;14.58;;;3.83;;
20229;SDS011;12195;55.790;37.572;2023-03-23T08:06:58;8.80;;;3.80;;
20229;SDS011;12195;55.790;37.572;2023-03-23T08:09:34;18.17;;;4.60;;
20229;SDS011;12195;55.790;37.572;2023-03-23T08:12:09;6.42;;;4.30;;
20229;SDS011;12195;55.790;37.572;2023-03-23T08:14:58;16.45;;;4.60;;
20229;SDS011;12195;55.790;37.572;2023-03-23T08:17:32;31.65;;;7.30;;
20229;SDS011;12195;55.790;37.572;2023-03-23T08:20:11;14.47;;;5.67;;
20229;SDS011;12195;55.790;37.572;2023-03-23T08:22:52;11.93;;;5.17;;
20229;SDS011;12195;55.790;37.572;2023-03-23T08:25:31;21.65;;;5.72;;
20229;SDS011;12195;55.790;37.572;2023-03-23T08:28:16;18.45;;;5.40;;
20229;SDS011;12195;55.790;37.572;2023-03-23T08:31:11;6.65;;;3.62;;
20229;SDS011;12195;55.790;37.572;2023-03-23T08:33:46;11.03;;;4.60;;
20229;SDS011;12195;55.790;37.572;2023-03-23T08:36:22;7.60;;;4.35;;
20229;SDS011;12195;55.790;37.572;2023-03-23T08:39:01;16.40;;;4.10;;
20229;SDS011;12195;55.790;37.572;2023-03-23T08:41:36;15.72;;;4.97;;
20229;SDS011;12195;55.790;37.572;2023-03-23T08:44:08;8.08;;;4.58;;
20229;SDS011;12195;55.790;37.572;2023-03-23T08:46:59;10.65;;;4.70;;
20229;SDS011;12195;55.790;37.572;2023-03-23T08:49:39;13.43;;;4.60;;
20229;SDS011;12195;55.790;37.572;2023-03-23T08:52:12;21.57;;;5.03;;
20229;SDS011;12195;55.790;37.572;2023-03-23T08:54:52;32.50;;;6.22;;
20229;SDS011;12195;55.790;37.572;2023-03-23T08:57:27;8.50;;;4.62;;
20229;SDS011;12195;55.790;37.572;2023-03-23T09:00:18;24.55;;;5.95;;
20229;SDS011;12195;55.790;37.572;2023-03-23T09:02:58;7.03;;;4.20;;
20229;SDS011;12195;55.790;37.572;2023-03-23T09:05:31;11.88;;;4.50;;
20229;SDS011;12195;55.790;37.572;2023-03-23T09:08:07;11.00;;;3.90;;
20229;SDS011;12195;55.790;37.572;2023-03-23T09:10:38;11.30;;;4.25;;
20229;SDS011;12195;55.790;37.572;2023-03-23T09:13:10;12.20;;;4.05;;
20229;SDS011;12195;55.790;37.572;2023-03-23T09:15:41;13.05;;;4.92;;
20229;SDS011;12195;55.790;37.572;2023-03-23T09:18:13;26.85;;;5.67;;
20229;SDS011;12195;55.790;37.572;2023-03-23T09:20:44;24.37;;;4.92;;
20229;SDS011;12195;55.790;37.572;2023-03-23T09:23:16;16.93;;;4.50;;
20229;SDS011;12195;55.790;37.572;2023-03-23T09:25:47;6.92;;;4.60;;
20229;SDS011;12195;55.790;37.572;2023-03-23T09:28:20;10.53;;;4.37;;
20229;SDS011;12195;55.790;37.572;2023-03-23T09:30:51;24.32;;;4.92;;
20229;SDS011;12195;55.790;37.572;2023-03-23T09:33:27;20.23;;;5.80;;
20229;SDS011;12195;55.790;37.572;2023-03-23T09:36:00;16.07;;;3.92;;
20229;SDS011;12195;55.790;37.572;2023-03-23T09:38:32;12.63;;;4.28;;
20229;SDS011;12195;55.790;37.572;2023-03-23T09:41:06;8.68;;;3.90;;
20229;SDS011;12195;55.790;37.572;2023-03-23T09:44:12;16.87;;;4.10;;
20229;SDS011;12195;55.790;37.572;2023-03-23T09:49:53;11.57;;;4.33;;
20229;SDS011;12195;55.790;37.572;2023-03-23T09:52:39;8.33;;;2.67;;
20229;SDS011;12195;55.790;37.572;2023-03-23T09:55:16;11.25;;;3.95;;
20229;SDS011;12195;55.790;37.572;2023-03-23T10:00:33;15.75;;;5.00;;
20229;SDS011;12195;55.790;37.572;2023-03-23T10:03:26;8.08;;;4.00;;
20229;SDS011;12195;55.790;37.572;2023-03-23T10:05:55;9.25;;;4.22;;
20229;SDS011;12195;55.790;37.572;2023-03-23T10:08:28;10.25;;;3.35;;
20229;SDS011;12195;55.790;37.572;2023-03-23T10:13:51;5.25;;;3.10;;
20229;SDS011;12195;55.790;37.572;2023-03-23T10:16:10;15.18;;;3.33;;
20229;SDS011;12195;55.790;37.572;2023-03-23T10:18:47;10.88;;;4.00;;
20229;SDS011;12195;55.790;37.572;2023-03-23T10:21:33;13.88;;;3.83;;
20229;SDS011;12195;55.790;37.572;2023-03-23T10:24:08;10.58;;;3.67;;
20229;SDS011;12195;55.790;37.572;2023-03-23T10:29:35;10.15;;;3.80;;
20229;SDS011;12195;55.790;37.572;2023-03-23T10:32:17;12.43;;;4.85;;
20229;SDS011;12195;55.790;37.572;2023-03-23T10:34:55;17.15;;;4.35;;
20229;SDS011;12195;55.790;37.572;2023-03-23T10:37:31;7.22;;;3.20;;
20229;SDS011;12195;55.790;37.572;2023-03-23T10:40:06;8.60;;;3.00;;
20229;SDS011;12195;55.790;37.572;2023-03-23T10:42:39;5.92;;;3.12;;
20229;SDS011;12195;55.790;37.572;2023-03-23T10:45:18;9.93;;;3.20;;
20229;SDS011;12195;55.790;37.572;2023-03-23T10:47:55;5.62;;;2.90;;
20229;SDS011;12195;55.790;37.572;2023-03-23T10:50:30;7.28;;;2.65;;
20229;SDS011;12195;55.790;37.572;2023-03-23T10:53:05;10.50;;;3.30;;
20229;SDS011;12195;55.790;37.572;2023-03-23T10:55:38;18.85;;;4.80;;
20229;SDS011;12195;55.790;37.572;2023-03-23T10:58:21;10.80;;;3.87;;
20229;SDS011;12195;55.790;37.572;2023-03-23T11:00:57;9.98;;;3.00;;
20229;SDS011;12195;55.790;37.572;2023-03-23T11:03:35;15.03;;;4.85;;
20229;SDS011;12195;55.790;37.572;2023-03-23T11:06:10;14.10;;;2.85;;
20229;SDS011;12195;55.790;37.572;2023-03-23T11:11:37;11.18;;;3.00;;
20229;SDS011;12195;55.790;37.572;2023-03-23T11:14:31;7.78;;;2.70;;
20229;SDS011;12195;55.790;37.572;2023-03-23T11:17:22;16.48;;;4.05;;
20229;SDS011;12195;55.790;37.572;2023-03-23T11:19:55;6.45;;;3.22;;
20229;SDS011;12195;55.790;37.572;2023-03-23T11:22:27;7.15;;;2.83;;
20229;SDS011;12195;55.790;37.572;2023-03-23T11:25:03;14.03;;;3.10;;
20229;SDS011;12195;55.790;37.572;2023-03-23T11:27:37;17.45;;;3.75;;
20229;SDS011;12195;55.790;37.572;2023-03-23T11:30:11;11.80;;;3.63;;
20229;SDS011;12195;55.790;37.572;2023-03-23T11:32:53;24.32;;;4.28;;
20229;SDS011;12195;55.790;37.572;2023-03-23T11:35:27;11.77;;;3.47;;
20229;SDS011;12195;55.790;37.572;2023-03-23T11:37:59;9.23;;;3.55;;
20229;SDS011;12195;55.790;37.572;2023-03-23T11:40:31;10.72;;;3.05;;
20229;SDS011;12195;55.790;37.572;2023-03-23T11:43:09;9.38;;;2.90;;
20229;SDS011;12195;55.790;37.572;2023-03-23T11:51:18;15.88;;;3.42;;
20229;SDS011;12195;55.790;37.572;2023-03-23T11:53:56;13.18;;;3.75;;
20229;SDS011;12195;55.790;37.572;2023-03-23T11:56:41;6.67;;;2.87;;
20229;SDS011;12195;55.790;37.572;2023-03-23T11:59:17;34.95;;;4.30;;
20229;SDS011;12195;55.790;37.572;2023-03-23T12:07:29;11.05;;;3.55;;
20229;SDS011;12195;55.790;37.572;2023-03-23T12:10:12;8.23;;;2.67;;
20229;SDS011;12195;55.790;37.572;2023-03-23T12:15:38;15.88;;;3.30;;
20229;SDS011;12195;55.790;37.572;2023-03-23T12:21:12;20.77;;;3.62;;
20229;SDS011;12195;55.790;37.572;2023-03-23T12:23:51;6.42;;;3.45;;
20229;SDS011;12195;55.790;37.572;2023-03-23T12:26:34;14.10;;;3.30;;
20229;SDS011;12195;55.790;37.572;2023-03-23T12:35:05;11.25;;;3.30;;
20229;SDS011;12195;55.790;37.572;2023-03-23T12:38:01;13.93;;;2.80;;
20229;SDS011;12195;55.790;37.572;2023-03-23T12:40:57;10.70;;;2.98;;
20229;SDS011;12195;55.790;37.572;2023-03-23T12:48:54;28.30;;;5.08;;
20229;SDS011;12195;55.790;37.572;2023-03-23T12:51:37;18.23;;;3.83;;
20229;SDS011;12195;55.790;37.572;2023-03-23T12:54:12;8.50;;;3.05;;
20229;SDS011;12195;55.790;37.572;2023-03-23T12:57:10;13.15;;;3.27;;
20229;SDS011;12195;55.790;37.572;2023-03-23T13:02:21;14.18;;;4.22;;
20229;SDS011;12195;55.790;37.572;2023-03-23T13:05:12;8.18;;;3.20;;
20229;SDS011;12195;55.790;37.572;2023-03-23T13:07:49;7.72;;;3.60;;
20229;SDS011;12195;55.790;37.572;2023-03-23T13:13:40;5.25;;;3.35;;
20229;SDS011;12195;55.790;37.572;2023-03-23T13:16:07;8.10;;;3.27;;
20229;SDS011;12195;55.790;37.572;2023-03-23T13:21:32;5.28;;;2.45;;
20229;SDS011;12195;55.790;37.572;2023-03-23T13:24:06;15.08;;;2.90;;
20229;SDS011;12195;55.790;37.572;2023-03-23T13:26:43;17.73;;;3.98;;
20229;SDS011;12195;55.790;37.572;2023-03-23T13:29:21;12.18;;;3.10;;
20229;SDS011;12195;55.790;37.572;2023-03-23T13:32:06;5.15;;;2.85;;
20229;SDS011;12195;55.790;37.572;2023-03-23T13:34:39;9.18;;;3.27;;
20229;SDS011;12195;55.790;37.572;2023-03-23T13:37:28;7.17;;;3.33;;
20229;SDS011;12195;55.790;37.572;2023-03-23T13:43:01;10.08;;;2.77;;
20229;SDS011;12195;55.790;37.572;2023-03-23T13:45:42;11.43;;;3.12;;
20229;SDS011;12195;55.790;37.572;2023-03-23T13:48:21;10.70;;;4.72;;
20229;SDS011;12195;55.790;37.572;2023-03-23T13:50:59;13.70;;;3.37;;
20229;SDS011;12195;55.790;37.572;2023-03-23T13:53:45;8.88;;;2.62;;
20229;SDS011;12195;55.790;37.572;2023-03-23T13:59:29;9.20;;;2.70;;
20229;SDS011;12195;55.790;37.572;2023-03-23T14:05:10;5.42;;;2.27;;
20229;SDS011;12195;55.790;37.572;2023-03-23T14:07:55;13.25;;;2.87;;
20229;SDS011;12195;55.790;37.572;2023-03-23T14:10:24;10.65;;;3.22;;
20229;SDS011;12195;55.790;37.572;2023-03-23T14:12:58;16.95;;;3.10;;
20229;SDS011;12195;55.790;37.572;2023-03-23T14:15:31;17.40;;;4.53;;
20229;SDS011;12195;55.790;37.572;2023-03-23T14:18:06;9.43;;;3.30;;
20229;SDS011;12195;55.790;37.572;2023-03-23T14:20:40;11.33;;;3.27;;
20229;SDS011;12195;55.790;37.572;2023-03-23T14:23:15;23.57;;;4.12;;
20229;SDS011;12195;55.790;37.572;2023-03-23T14:25:56;12.18;;;3.58;;
20229;SDS011;12195;55.790;37.572;2023-03-23T14:28:41;14.95;;;4.22;;
20229;SDS011;12195;55.790;37.572;2023-03-23T14:31:19;3.90;;;2.65;;
20229;SDS011;12195;55.790;37.572;2023-03-23T14:33:47;10.30;;;2.80;;
20229;SDS011;12195;55.790;37.572;2023-03-23T14:36:21;10.08;;;2.90;;
20229;SDS011;12195;55.790;37.572;2023-03-23T14:41:45;18.32;;;3.22;;
20229;SDS011;12195;55.790;37.572;2023-03-23T14:44:23;8.93;;;2.98;;
20229;SDS011;12195;55.790;37.572;2023-03-23T14:47:02;9.45;;;3.22;;
20229;SDS011;12195;55.790;37.572;2023-03-23T14:49:36;12.13;;;3.92;;
20229;SDS011;12195;55.790;37.572;2023-03-23T14:52:15;6.65;;;2.83;;
20229;SDS011;12195;55.790;37.572;2023-03-23T14:54:47;6.28;;;3.02;;
20229;SDS011;12195;55.790;37.572;2023-03-23T14:57:25;5.97;;;2.60;;
20229;SDS011;12195;55.790;37.572;2023-03-23T15:00:03;13.58;;;3.37;;
20229;SDS011;12195;55.790;37.572;2023-03-23T15:02:32;13.48;;;4.33;;
20229;SDS011;12195;55.790;37.572;2023-03-23T15:05:09;11.43;;;3.27;;
20229;SDS011;12195;55.790;37.572;2023-03-23T15:07:44;10.08;;;4.17;;
20229;SDS011;12195;55.790;37.572;2023-03-23T15:10:19;10.03;;;3.10;;
20229;SDS011;12195;55.790;37.572;2023-03-23T15:12:52;9.33;;;2.70;;
20229;SDS011;12195;55.790;37.572;2023-03-23T15:15:27;7.37;;;2.62;;
20229;SDS011;12195;55.790;37.572;2023-03-23T15:17:59;7.28;;;3.55;;
20229;SDS011;12195;55.790;37.572;2023-03-23T15:23:22;12.07;;;3.42;;
20229;SDS011;12195;55.790;37.572;2023-03-23T15:26:02;7.83;;;2.92;;
20229;SDS011;12195;55.790;37.572;2023-03-23T15:31:05;8.63;;;3.20;;
20229;SDS011;12195;55.790;37.572;2023-03-23T15:33:38;6.50;;;2.77;;
20229;SDS011;12195;55.790;37.572;2023-03-23T15:36:16;11.57;;;3.10;;
20229;SDS011;12195;55.790;37.572;2023-03-23T15:38:51;29.25;;;4.87;;
20229;SDS011;12195;55.790;37.572;2023-03-23T15:41:23;4.85;;;2.83;;
20229;SDS011;12195;55.790;37.572;2023-03-23T15:44:09;7.58;;;3.40;;
20229;SDS011;12195;55.790;37.572;2023-03-23T15:46:49;9.50;;;3.10;;
20229;SDS011;12195;55.790;37.572;2023-03-23T15:49:24;4.20;;;3.08;;
20229;SDS011;12195;55.790;37.572;2023-03-23T15:51:56;6.05;;;3.22;;
20229;SDS011;12195;55.790;37.572;2023-03-23T15:54:29;9.08;;;3.37;;
20229;SDS011;12195;55.790;37.572;2023-03-23T15:57:01;16.87;;;4.10;;
20229;SDS011;12195;55.790;37.572;2023-03-23T15:59:36;4.65;;;3.12;;
20229;SDS011;12195;55.790;37.572;2023-03-23T16:02:13;16.45;;;3.52;;
20229;SDS011;12195;55.790;37.572;2023-03-23T16:04:44;7.37;;;3.45;;
20229;SDS011;12195;55.790;37.572;2023-03-23T16:07:18;12.00;;;2.80;;
20229;SDS011;12195;55.790;37.572;2023-03-23T16:09:53;8.33;;;3.30;;
20229;SDS011;12195;55.790;37.572;2023-03-23T16:12:25;12.75;;;3.30;;
20229;SDS011;12195;55.790;37.572;2023-03-23T16:15:01;15.38;;;3.17;;
20229;SDS011;12195;55.790;37.572;2023-03-23T16:17:34;10.48;;;3.20;;
20229;SDS011;12195;55.790;37.572;2023-03-23T16:20:15;8.93;;;3.40;;
20229;SDS011;12195;55.790;37.572;2023-03-23T16:22:50;8.70;;;3.95;;
20229;SDS011;12195;55.790;37.572;2023-03-23T16:25:23;17.50;;;3.87;;
20229;SDS011;12195;55.790;37.572;2023-03-23T16:27:57;5.92;;;2.70;;
20229;SDS011;12195;55.790;37.572;2023-03-23T16:30:31;12.58;;;4.28;;
20229;SDS011;12195;55.790;37.572;2023-03-23T16:33:05;10.70;;;3.10;;
20229;SDS011;12195;55.790;37.572;2023-03-23T16:35:41;9.05;;;3.35;;
20229;SDS011;12195;55.790;37.572;2023-03-23T16:38:15;6.05;;;2.70;;
20229;SDS011;12195;55.790;37.572;2023-03-23T16:40:51;13.28;;;4.28;;
20229;SDS011;12195;55.790;37.572;2023-03-23T16:43:28;9.25;;;3.02;;
20229;SDS011;12195;55.790;37.572;2023-03-23T16:46:01;14.40;;;3.80;;
20229;SDS011;12195;55.790;37.572;2023-03-23T16:48:36;16.82;;;4.03;;
20229;SDS011;12195;55.790;37.572;2023-03-23T16:51:08;13.80;;;3.10;;